sensor_id;sensor_type;location;lat;lon;timestamp;P1;durP1;ratioP1;P2;durP2;ratioP2
11531;SDS011;5822;51.000;5.874;2024-03-08T00:01:35;29.40;;;27.63;;
11531;SDS011;5822;51.000;5.874;2024-03-08T00:04:01;29.95;;;28.15;;
11531;SDS011;5822;51.000;5.874;2024-03-08T00:06:26;29.95;;;28.15;;
11531;SDS011;5822;51.000;5.874;2024-03-08T00:08:52;29.90;;;28.10;;
11531;SDS011;5822;51.000;5.874;2024-03-08T00:11:18;30.67;;;28.77;;
11531;SDS011;5822;51.000;5.874;2024-03-08T00:13:43;30.27;;;28.47;;
11531;SDS011;5822;51.000;5.874;2024-03-08T00:16:10;29.58;;;27.77;;
11531;SDS011;5822;51.000;5.874;2024-03-08T00:18:35;29.00;;;27.20;;
11531;SDS011;5822;51.000;5.874;2024-03-08T00:21:01;28.50;;;26.80;;
11531;SDS011;5822;51.000;5.874;2024-03-08T00:23:27;29.23;;;27.42;;
11531;SDS011;5822;51.000;5.874;2024-03-08T00:25:53;29.40;;;27.60;;
11531;SDS011;5822;51.000;5.874;2024-03-08T00:28:20;29.67;;;27.88;;
11531;SDS011;5822;51.000;5.874;2024-03-08T00:30:46;30.23;;;28.42;;
11531;SDS011;5822;51.000;5.874;2024-03-08T00:33:12;29.60;;;27.80;;
11531;SDS011;5822;51.000;5.874;2024-03-08T00:35:38;31.00;;;29.10;;
11531;SDS011;5822;51.000;5.874;2024-03-08T00:38:04;31.23;;;29.33;;
11531;SDS011;5822;51.000;5.874;2024-03-08T00:40:30;31.67;;;29.67;;
11531;SDS011;5822;51.000;5.874;2024-03-08T00:42:55;30.40;;;28.50;;
11531;SDS011;5822;51.000;5.874;2024-03-08T00:45:21;30.20;;;28.30;;
11531;SDS011;5822;51.000;5.874;2024-03-08T00:47:48;31.08;;;29.17;;
11531;SDS011;5822;51.000;5.874;2024-03-08T00:50:14;30.80;;;28.90;;
11531;SDS011;5822;51.000;5.874;2024-03-08T00:52:39;30.30;;;28.40;;
11531;SDS011;5822;51.000;5.874;2024-03-08T00:55:05;32.30;;;30.30;;
11531;SDS011;5822;51.000;5.874;2024-03-08T00:57:32;32.55;;;30.52;;
11531;SDS011;5822;51.000;5.874;2024-03-08T00:59:58;29.00;;;27.20;;
11531;SDS011;5822;51.000;5.874;2024-03-08T01:02:24;30.90;;;29.00;;
11531;SDS011;5822;51.000;5.874;2024-03-08T01:04:50;32.70;;;30.50;;
11531;SDS011;5822;51.000;5.874;2024-03-08T01:07:15;30.17;;;28.17;;
11531;SDS011;5822;51.000;5.874;2024-03-08T01:09:41;30.83;;;28.93;;
11531;SDS011;5822;51.000;5.874;2024-03-08T01:12:07;29.90;;;28.00;;
11531;SDS011;5822;51.000;5.874;2024-03-08T01:14:33;30.30;;;28.30;;
11531;SDS011;5822;51.000;5.874;2024-03-08T01:16:58;29.03;;;27.13;;
11531;SDS011;5822;51.000;5.874;2024-03-08T01:19:24;28.73;;;26.92;;
11531;SDS011;5822;51.000;5.874;2024-03-08T01:21:50;27.45;;;25.75;;
11531;SDS011;5822;51.000;5.874;2024-03-08T01:24:16;29.38;;;27.52;;
11531;SDS011;5822;51.000;5.874;2024-03-08T01:26:42;31.20;;;29.20;;
11531;SDS011;5822;51.000;5.874;2024-03-08T01:29:07;29.47;;;27.57;;
11531;SDS011;5822;51.000;5.874;2024-03-08T01:31:33;29.27;;;27.47;;
11531;SDS011;5822;51.000;5.874;2024-03-08T01:33:59;29.40;;;27.60;;
11531;SDS011;5822;51.000;5.874;2024-03-08T01:36:25;30.02;;;28.17;;
11531;SDS011;5822;51.000;5.874;2024-03-08T01:38:51;28.77;;;26.98;;
11531;SDS011;5822;51.000;5.874;2024-03-08T01:41:17;30.13;;;28.23;;
11531;SDS011;5822;51.000;5.874;2024-03-08T01:43:43;31.10;;;29.10;;
11531;SDS011;5822;51.000;5.874;2024-03-08T01:46:10;30.13;;;28.13;;
11531;SDS011;5822;51.000;5.874;2024-03-08T01:48:40;29.00;;;27.20;;
11531;SDS011;5822;51.000;5.874;2024-03-08T01:51:06;29.08;;;27.27;;
11531;SDS011;5822;51.000;5.874;2024-03-08T01:53:32;30.15;;;28.25;;
11531;SDS011;5822;51.000;5.874;2024-03-08T01:55:59;31.70;;;29.60;;
11531;SDS011;5822;51.000;5.874;2024-03-08T01:58:27;30.10;;;28.30;;
11531;SDS011;5822;51.000;5.874;2024-03-08T02:00:54;30.55;;;28.65;;
11531;SDS011;5822;51.000;5.874;2024-03-08T02:03:21;30.30;;;28.40;;
11531;SDS011;5822;51.000;5.874;2024-03-08T02:05:47;30.13;;;28.23;;
11531;SDS011;5822;51.000;5.874;2024-03-08T02:08:14;31.33;;;29.33;;
11531;SDS011;5822;51.000;5.874;2024-03-08T02:10:40;30.43;;;28.43;;
11531;SDS011;5822;51.000;5.874;2024-03-08T02:13:07;32.22;;;30.13;;
11531;SDS011;5822;51.000;5.874;2024-03-08T02:15:52;29.35;;;27.45;;
11531;SDS011;5822;51.000;5.874;2024-03-08T02:18:18;29.33;;;27.45;;
11531;SDS011;5822;51.000;5.874;2024-03-08T02:20:49;29.67;;;27.77;;
11531;SDS011;5822;51.000;5.874;2024-03-08T02:23:21;28.95;;;27.05;;
11531;SDS011;5822;51.000;5.874;2024-03-08T02:25:47;28.95;;;27.08;;
11531;SDS011;5822;51.000;5.874;2024-03-08T02:28:14;29.75;;;27.85;;
11531;SDS011;5822;51.000;5.874;2024-03-08T02:30:40;29.45;;;27.55;;
11531;SDS011;5822;51.000;5.874;2024-03-08T02:33:06;30.15;;;28.17;;
11531;SDS011;5822;51.000;5.874;2024-03-08T02:35:34;31.42;;;29.42;;
11531;SDS011;5822;51.000;5.874;2024-03-08T02:38:01;30.25;;;28.35;;
11531;SDS011;5822;51.000;5.874;2024-03-08T02:40:28;29.67;;;27.77;;
11531;SDS011;5822;51.000;5.874;2024-03-08T02:42:54;29.55;;;27.65;;
11531;SDS011;5822;51.000;5.874;2024-03-08T02:45:20;29.70;;;27.83;;
11531;SDS011;5822;51.000;5.874;2024-03-08T02:47:46;29.80;;;27.90;;
11531;SDS011;5822;51.000;5.874;2024-03-08T02:50:11;30.08;;;28.17;;
11531;SDS011;5822;51.000;5.874;2024-03-08T02:52:41;29.33;;;27.52;;
11531;SDS011;5822;51.000;5.874;2024-03-08T02:55:11;30.70;;;28.80;;
11531;SDS011;5822;51.000;5.874;2024-03-08T02:57:40;31.67;;;29.63;;
11531;SDS011;5822;51.000;5.874;2024-03-08T03:00:06;31.20;;;29.20;;
11531;SDS011;5822;51.000;5.874;2024-03-08T03:02:34;32.03;;;29.93;;
11531;SDS011;5822;51.000;5.874;2024-03-08T03:05:00;29.10;;;27.30;;
11531;SDS011;5822;51.000;5.874;2024-03-08T03:07:30;29.77;;;27.87;;
11531;SDS011;5822;51.000;5.874;2024-03-08T03:09:56;31.42;;;29.38;;
11531;SDS011;5822;51.000;5.874;2024-03-08T03:12:22;31.05;;;29.05;;
11531;SDS011;5822;51.000;5.874;2024-03-08T03:14:47;30.85;;;28.95;;
11531;SDS011;5822;51.000;5.874;2024-03-08T03:17:13;29.77;;;27.88;;
11531;SDS011;5822;51.000;5.874;2024-03-08T03:19:42;31.98;;;29.88;;
11531;SDS011;5822;51.000;5.874;2024-03-08T03:22:08;32.65;;;30.55;;
11531;SDS011;5822;51.000;5.874;2024-03-08T03:24:35;33.78;;;31.48;;
11531;SDS011;5822;51.000;5.874;2024-03-08T03:27:03;31.85;;;29.75;;
11531;SDS011;5822;51.000;5.874;2024-03-08T03:29:36;32.15;;;30.05;;
11531;SDS011;5822;51.000;5.874;2024-03-08T03:32:02;32.63;;;30.52;;
11531;SDS011;5822;51.000;5.874;2024-03-08T03:34:29;32.45;;;30.35;;
11531;SDS011;5822;51.000;5.874;2024-03-08T03:36:55;32.33;;;30.23;;
11531;SDS011;5822;51.000;5.874;2024-03-08T03:39:21;32.53;;;30.42;;
11531;SDS011;5822;51.000;5.874;2024-03-08T03:41:47;32.67;;;30.58;;
11531;SDS011;5822;51.000;5.874;2024-03-08T03:44:17;32.20;;;30.00;;
11531;SDS011;5822;51.000;5.874;2024-03-08T03:46:43;32.70;;;30.60;;
11531;SDS011;5822;51.000;5.874;2024-03-08T03:49:12;32.80;;;30.60;;
11531;SDS011;5822;51.000;5.874;2024-03-08T03:51:38;31.47;;;29.47;;
11531;SDS011;5822;51.000;5.874;2024-03-08T03:54:04;31.02;;;29.02;;
11531;SDS011;5822;51.000;5.874;2024-03-08T03:56:29;32.20;;;30.10;;
11531;SDS011;5822;51.000;5.874;2024-03-08T03:58:55;31.57;;;29.47;;
11531;SDS011;5822;51.000;5.874;2024-03-08T04:01:21;29.25;;;27.35;;
11531;SDS011;5822;51.000;5.874;2024-03-08T04:03:47;31.30;;;29.27;;
11531;SDS011;5822;51.000;5.874;2024-03-08T04:06:13;32.83;;;30.73;;
11531;SDS011;5822;51.000;5.874;2024-03-08T04:08:39;30.83;;;28.83;;
11531;SDS011;5822;51.000;5.874;2024-03-08T04:11:05;31.75;;;29.65;;
11531;SDS011;5822;51.000;5.874;2024-03-08T04:13:30;31.13;;;29.13;;
11531;SDS011;5822;51.000;5.874;2024-03-08T04:15:56;32.38;;;30.27;;
11531;SDS011;5822;51.000;5.874;2024-03-08T04:18:22;32.92;;;30.70;;
11531;SDS011;5822;51.000;5.874;2024-03-08T04:20:47;32.08;;;29.98;;
11531;SDS011;5822;51.000;5.874;2024-03-08T04:23:13;31.42;;;29.38;;
11531;SDS011;5822;51.000;5.874;2024-03-08T04:25:39;33.08;;;30.95;;
11531;SDS011;5822;51.000;5.874;2024-03-08T04:28:07;33.05;;;30.85;;
11531;SDS011;5822;51.000;5.874;2024-03-08T04:30:36;32.88;;;30.67;;
11531;SDS011;5822;51.000;5.874;2024-03-08T04:33:05;32.92;;;30.83;;
11531;SDS011;5822;51.000;5.874;2024-03-08T04:35:34;32.45;;;30.25;;
11531;SDS011;5822;51.000;5.874;2024-03-08T04:38:00;31.27;;;29.17;;
11531;SDS011;5822;51.000;5.874;2024-03-08T04:40:26;32.93;;;30.73;;
11531;SDS011;5822;51.000;5.874;2024-03-08T04:42:51;31.80;;;29.70;;
11531;SDS011;5822;51.000;5.874;2024-03-08T04:45:17;31.67;;;29.58;;
11531;SDS011;5822;51.000;5.874;2024-03-08T04:47:43;32.85;;;30.65;;
11531;SDS011;5822;51.000;5.874;2024-03-08T04:50:09;31.38;;;29.27;;
11531;SDS011;5822;51.000;5.874;2024-03-08T04:52:35;32.58;;;30.38;;
11531;SDS011;5822;51.000;5.874;2024-03-08T04:55:00;31.50;;;29.43;;
11531;SDS011;5822;51.000;5.874;2024-03-08T04:57:30;30.90;;;28.90;;
11531;SDS011;5822;51.000;5.874;2024-03-08T04:59:56;31.07;;;29.07;;
11531;SDS011;5822;51.000;5.874;2024-03-08T05:02:23;30.02;;;28.05;;
11531;SDS011;5822;51.000;5.874;2024-03-08T05:04:48;30.90;;;28.90;;
11531;SDS011;5822;51.000;5.874;2024-03-08T05:07:14;32.15;;;30.05;;
11531;SDS011;5822;51.000;5.874;2024-03-08T05:09:40;31.73;;;29.63;;
11531;SDS011;5822;51.000;5.874;2024-03-08T05:12:06;33.30;;;31.10;;
11531;SDS011;5822;51.000;5.874;2024-03-08T05:14:33;34.10;;;31.80;;
11531;SDS011;5822;51.000;5.874;2024-03-08T05:17:00;34.40;;;32.10;;
11531;SDS011;5822;51.000;5.874;2024-03-08T05:19:26;33.83;;;31.52;;
11531;SDS011;5822;51.000;5.874;2024-03-08T05:21:51;32.53;;;30.23;;
11531;SDS011;5822;51.000;5.874;2024-03-08T05:24:17;33.17;;;30.77;;
11531;SDS011;5822;51.000;5.874;2024-03-08T05:26:43;34.13;;;31.73;;
11531;SDS011;5822;51.000;5.874;2024-03-08T05:29:10;34.60;;;32.30;;
11531;SDS011;5822;51.000;5.874;2024-03-08T05:31:43;33.67;;;31.38;;
11531;SDS011;5822;51.000;5.874;2024-03-08T05:34:15;32.83;;;30.52;;
11531;SDS011;5822;51.000;5.874;2024-03-08T05:36:41;33.33;;;31.02;;
11531;SDS011;5822;51.000;5.874;2024-03-08T05:39:11;33.40;;;31.23;;
11531;SDS011;5822;51.000;5.874;2024-03-08T05:41:38;34.22;;;31.92;;
11531;SDS011;5822;51.000;5.874;2024-03-08T05:44:04;32.28;;;30.08;;
11531;SDS011;5822;51.000;5.874;2024-03-08T05:46:30;33.70;;;31.40;;
11531;SDS011;5822;51.000;5.874;2024-03-08T05:48:55;33.53;;;31.23;;
11531;SDS011;5822;51.000;5.874;2024-03-08T05:51:23;34.38;;;32.03;;
11531;SDS011;5822;51.000;5.874;2024-03-08T05:53:50;35.88;;;33.38;;
11531;SDS011;5822;51.000;5.874;2024-03-08T05:56:18;34.83;;;32.42;;
11531;SDS011;5822;51.000;5.874;2024-03-08T05:58:44;35.72;;;33.33;;
11531;SDS011;5822;51.000;5.874;2024-03-08T06:01:10;34.90;;;32.50;;
11531;SDS011;5822;51.000;5.874;2024-03-08T06:03:37;34.03;;;31.67;;
11531;SDS011;5822;51.000;5.874;2024-03-08T06:06:13;36.17;;;33.67;;
11531;SDS011;5822;51.000;5.874;2024-03-08T06:08:39;36.20;;;33.70;;
11531;SDS011;5822;51.000;5.874;2024-03-08T06:11:05;36.20;;;33.67;;
11531;SDS011;5822;51.000;5.874;2024-03-08T06:13:34;35.88;;;33.38;;
11531;SDS011;5822;51.000;5.874;2024-03-08T06:16:00;35.88;;;33.28;;
11531;SDS011;5822;51.000;5.874;2024-03-08T06:18:29;36.10;;;33.50;;
11531;SDS011;5822;51.000;5.874;2024-03-08T06:20:58;32.85;;;30.58;;
11531;SDS011;5822;51.000;5.874;2024-03-08T06:23:23;32.30;;;30.10;;
11531;SDS011;5822;51.000;5.874;2024-03-08T06:25:49;32.40;;;30.20;;
11531;SDS011;5822;51.000;5.874;2024-03-08T06:28:15;32.23;;;30.03;;
11531;SDS011;5822;51.000;5.874;2024-03-08T06:30:41;32.20;;;30.00;;
11531;SDS011;5822;51.000;5.874;2024-03-08T06:33:08;33.45;;;31.15;;
11531;SDS011;5822;51.000;5.874;2024-03-08T06:35:33;33.23;;;30.93;;
11531;SDS011;5822;51.000;5.874;2024-03-08T06:38:02;33.80;;;31.50;;
11531;SDS011;5822;51.000;5.874;2024-03-08T06:40:29;33.08;;;30.88;;
11531;SDS011;5822;51.000;5.874;2024-03-08T06:42:54;33.97;;;31.67;;
11531;SDS011;5822;51.000;5.874;2024-03-08T06:45:20;35.77;;;33.37;;
11531;SDS011;5822;51.000;5.874;2024-03-08T06:47:46;33.70;;;31.40;;
11531;SDS011;5822;51.000;5.874;2024-03-08T06:50:13;33.42;;;31.13;;
11531;SDS011;5822;51.000;5.874;2024-03-08T06:52:40;33.78;;;31.48;;
11531;SDS011;5822;51.000;5.874;2024-03-08T06:55:07;34.05;;;31.75;;
11531;SDS011;5822;51.000;5.874;2024-03-08T06:57:37;33.92;;;31.63;;
11531;SDS011;5822;51.000;5.874;2024-03-08T07:00:05;31.73;;;29.63;;
11531;SDS011;5822;51.000;5.874;2024-03-08T07:02:34;32.42;;;30.23;;
11531;SDS011;5822;51.000;5.874;2024-03-08T07:05:01;32.83;;;30.63;;
11531;SDS011;5822;51.000;5.874;2024-03-08T07:07:28;37.85;;;35.45;;
11531;SDS011;5822;51.000;5.874;2024-03-08T07:09:55;44.08;;;41.38;;
11531;SDS011;5822;51.000;5.874;2024-03-08T07:12:21;42.05;;;39.45;;
11531;SDS011;5822;51.000;5.874;2024-03-08T07:14:48;51.75;;;48.95;;
11531;SDS011;5822;51.000;5.874;2024-03-08T07:17:14;40.10;;;37.60;;
11531;SDS011;5822;51.000;5.874;2024-03-08T07:19:41;44.45;;;41.75;;
11531;SDS011;5822;51.000;5.874;2024-03-08T07:22:07;43.45;;;40.85;;
11531;SDS011;5822;51.000;5.874;2024-03-08T07:24:36;45.55;;;42.85;;
11531;SDS011;5822;51.000;5.874;2024-03-08T07:27:03;45.97;;;43.28;;
11531;SDS011;5822;51.000;5.874;2024-03-08T07:29:30;37.08;;;34.78;;
11531;SDS011;5822;51.000;5.874;2024-03-08T07:31:56;36.83;;;34.53;;
11531;SDS011;5822;51.000;5.874;2024-03-08T07:34:57;35.33;;;33.13;;
11531;SDS011;5822;51.000;5.874;2024-03-08T07:37:23;35.63;;;33.53;;
11531;SDS011;5822;51.000;5.874;2024-03-08T07:39:49;38.28;;;35.97;;
11531;SDS011;5822;51.000;5.874;2024-03-08T07:42:15;39.88;;;37.47;;
11531;SDS011;5822;51.000;5.874;2024-03-08T07:44:41;35.25;;;33.13;;
11531;SDS011;5822;51.000;5.874;2024-03-08T07:47:08;37.03;;;34.83;;
11531;SDS011;5822;51.000;5.874;2024-03-08T07:49:35;36.92;;;34.63;;
11531;SDS011;5822;51.000;5.874;2024-03-08T07:52:02;37.00;;;34.70;;
11531;SDS011;5822;51.000;5.874;2024-03-08T07:54:29;41.47;;;38.88;;
11531;SDS011;5822;51.000;5.874;2024-03-08T07:56:55;38.17;;;35.88;;
11531;SDS011;5822;51.000;5.874;2024-03-08T07:59:21;38.77;;;36.30;;
11531;SDS011;5822;51.000;5.874;2024-03-08T08:01:46;32.97;;;30.87;;
11531;SDS011;5822;51.000;5.874;2024-03-08T08:04:12;33.67;;;31.48;;
11531;SDS011;5822;51.000;5.874;2024-03-08T08:06:39;33.17;;;31.08;;
11531;SDS011;5822;51.000;5.874;2024-03-08T08:09:08;35.10;;;32.90;;
11531;SDS011;5822;51.000;5.874;2024-03-08T08:11:39;39.50;;;37.17;;
11531;SDS011;5822;51.000;5.874;2024-03-08T08:14:08;39.30;;;36.93;;
11531;SDS011;5822;51.000;5.874;2024-03-08T08:16:36;34.75;;;32.65;;
11531;SDS011;5822;51.000;5.874;2024-03-08T08:19:03;34.97;;;32.87;;
11531;SDS011;5822;51.000;5.874;2024-03-08T08:21:33;33.30;;;31.30;;
11531;SDS011;5822;51.000;5.874;2024-03-08T08:24:01;36.17;;;34.08;;
11531;SDS011;5822;51.000;5.874;2024-03-08T08:26:31;37.95;;;35.65;;
11531;SDS011;5822;51.000;5.874;2024-03-08T08:28:57;37.20;;;34.80;;
11531;SDS011;5822;51.000;5.874;2024-03-08T08:31:24;35.65;;;33.47;;
11531;SDS011;5822;51.000;5.874;2024-03-08T08:33:50;36.90;;;34.60;;
11531;SDS011;5822;51.000;5.874;2024-03-08T08:36:19;35.92;;;33.72;;
11531;SDS011;5822;51.000;5.874;2024-03-08T08:38:44;38.10;;;35.83;;
11531;SDS011;5822;51.000;5.874;2024-03-08T08:41:10;35.28;;;33.08;;
11531;SDS011;5822;51.000;5.874;2024-03-08T08:43:36;35.47;;;33.28;;
11531;SDS011;5822;51.000;5.874;2024-03-08T08:46:02;35.90;;;33.67;;
11531;SDS011;5822;51.000;5.874;2024-03-08T08:48:28;35.92;;;33.72;;
11531;SDS011;5822;51.000;5.874;2024-03-08T08:50:55;35.10;;;32.90;;
11531;SDS011;5822;51.000;5.874;2024-03-08T08:53:21;36.17;;;33.88;;
11531;SDS011;5822;51.000;5.874;2024-03-08T08:55:47;34.03;;;31.93;;
11531;SDS011;5822;51.000;5.874;2024-03-08T08:58:13;32.87;;;30.77;;
11531;SDS011;5822;51.000;5.874;2024-03-08T09:00:39;34.60;;;32.40;;
11531;SDS011;5822;51.000;5.874;2024-03-08T09:03:05;31.85;;;29.95;;
11531;SDS011;5822;51.000;5.874;2024-03-08T09:05:32;33.38;;;31.27;;
11531;SDS011;5822;51.000;5.874;2024-03-08T09:07:58;32.28;;;30.23;;
11531;SDS011;5822;51.000;5.874;2024-03-08T09:10:25;30.00;;;28.20;;
11531;SDS011;5822;51.000;5.874;2024-03-08T09:12:50;31.95;;;29.98;;
11531;SDS011;5822;51.000;5.874;2024-03-08T09:15:16;30.85;;;28.95;;
11531;SDS011;5822;51.000;5.874;2024-03-08T09:17:42;33.43;;;31.33;;
11531;SDS011;5822;51.000;5.874;2024-03-08T09:20:10;34.40;;;32.20;;
11531;SDS011;5822;51.000;5.874;2024-03-08T09:22:48;33.58;;;31.42;;
11531;SDS011;5822;51.000;5.874;2024-03-08T09:25:14;32.80;;;30.73;;
11531;SDS011;5822;51.000;5.874;2024-03-08T09:27:41;31.23;;;29.33;;
11531;SDS011;5822;51.000;5.874;2024-03-08T09:30:07;33.60;;;31.50;;
11531;SDS011;5822;51.000;5.874;2024-03-08T09:32:33;32.03;;;30.07;;
11531;SDS011;5822;51.000;5.874;2024-03-08T09:34:58;34.47;;;32.27;;
11531;SDS011;5822;51.000;5.874;2024-03-08T09:37:26;32.85;;;30.75;;
11531;SDS011;5822;51.000;5.874;2024-03-08T09:39:52;34.33;;;32.13;;
11531;SDS011;5822;51.000;5.874;2024-03-08T09:42:17;34.03;;;31.83;;
11531;SDS011;5822;51.000;5.874;2024-03-08T09:44:45;32.30;;;30.30;;
11531;SDS011;5822;51.000;5.874;2024-03-08T09:47:12;34.50;;;32.30;;
11531;SDS011;5822;51.000;5.874;2024-03-08T09:49:39;33.38;;;31.38;;
11531;SDS011;5822;51.000;5.874;2024-03-08T09:52:06;32.00;;;30.05;;
11531;SDS011;5822;51.000;5.874;2024-03-08T09:54:35;30.92;;;29.08;;
11531;SDS011;5822;51.000;5.874;2024-03-08T09:57:03;31.83;;;29.92;;
11531;SDS011;5822;51.000;5.874;2024-03-08T09:59:29;31.73;;;29.83;;
11531;SDS011;5822;51.000;5.874;2024-03-08T10:02:01;31.90;;;29.90;;
11531;SDS011;5822;51.000;5.874;2024-03-08T10:04:28;31.63;;;29.73;;
11531;SDS011;5822;51.000;5.874;2024-03-08T10:06:57;31.07;;;29.17;;
11531;SDS011;5822;51.000;5.874;2024-03-08T10:09:24;31.77;;;29.88;;
11531;SDS011;5822;51.000;5.874;2024-03-08T10:11:56;30.15;;;28.35;;
11531;SDS011;5822;51.000;5.874;2024-03-08T10:14:23;30.95;;;29.05;;
11531;SDS011;5822;51.000;5.874;2024-03-08T10:16:51;32.88;;;30.88;;
11531;SDS011;5822;51.000;5.874;2024-03-08T10:19:17;32.22;;;30.23;;
11531;SDS011;5822;51.000;5.874;2024-03-08T10:21:49;30.65;;;28.75;;
11531;SDS011;5822;51.000;5.874;2024-03-08T10:24:17;30.83;;;28.92;;
11531;SDS011;5822;51.000;5.874;2024-03-08T10:26:42;31.08;;;29.08;;
11531;SDS011;5822;51.000;5.874;2024-03-08T10:29:09;31.75;;;29.75;;
11531;SDS011;5822;51.000;5.874;2024-03-08T10:31:34;33.13;;;31.03;;
11531;SDS011;5822;51.000;5.874;2024-03-08T10:34:01;28.87;;;27.17;;
11531;SDS011;5822;51.000;5.874;2024-03-08T10:36:27;30.33;;;28.45;;
11531;SDS011;5822;51.000;5.874;2024-03-08T10:38:53;30.25;;;28.35;;
11531;SDS011;5822;51.000;5.874;2024-03-08T10:41:24;30.50;;;28.60;;
11531;SDS011;5822;51.000;5.874;2024-03-08T10:49:44;29.35;;;27.45;;
11531;SDS011;5822;51.000;5.874;2024-03-08T10:52:13;28.63;;;26.83;;
11531;SDS011;5822;51.000;5.874;2024-03-08T10:54:42;28.10;;;26.40;;
11531;SDS011;5822;51.000;5.874;2024-03-08T10:57:10;30.15;;;28.17;;
11531;SDS011;5822;51.000;5.874;2024-03-08T10:59:37;29.80;;;27.90;;
11531;SDS011;5822;51.000;5.874;2024-03-08T11:02:04;31.00;;;29.10;;
11531;SDS011;5822;51.000;5.874;2024-03-08T11:04:33;29.95;;;28.10;;
11531;SDS011;5822;51.000;5.874;2024-03-08T11:07:02;29.67;;;27.88;;
11531;SDS011;5822;51.000;5.874;2024-03-08T11:09:36;29.85;;;28.05;;
11531;SDS011;5822;51.000;5.874;2024-03-08T11:12:19;30.33;;;28.52;;
11531;SDS011;5822;51.000;5.874;2024-03-08T11:14:55;28.88;;;27.13;;
11531;SDS011;5822;51.000;5.874;2024-03-08T11:28:22;32.90;;;31.00;;
11531;SDS011;5822;51.000;5.874;2024-03-08T11:33:24;29.90;;;28.00;;
11531;SDS011;5822;51.000;5.874;2024-03-08T11:36:08;28.58;;;26.98;;
11531;SDS011;5822;51.000;5.874;2024-03-08T11:38:42;27.50;;;25.80;;
11531;SDS011;5822;51.000;5.874;2024-03-08T11:41:09;27.30;;;25.58;;
11531;SDS011;5822;51.000;5.874;2024-03-08T11:43:42;25.70;;;24.20;;
11531;SDS011;5822;51.000;5.874;2024-03-08T11:46:08;26.42;;;24.83;;
11531;SDS011;5822;51.000;5.874;2024-03-08T11:48:34;27.73;;;26.08;;
11531;SDS011;5822;51.000;5.874;2024-03-08T11:51:03;28.52;;;26.83;;
11531;SDS011;5822;51.000;5.874;2024-03-08T11:53:30;26.92;;;25.30;;
11531;SDS011;5822;51.000;5.874;2024-03-08T11:56:05;28.50;;;26.70;;
11531;SDS011;5822;51.000;5.874;2024-03-08T11:58:36;28.83;;;27.13;;
11531;SDS011;5822;51.000;5.874;2024-03-08T12:01:05;28.20;;;26.50;;
11531;SDS011;5822;51.000;5.874;2024-03-08T12:03:37;27.33;;;25.73;;
11531;SDS011;5822;51.000;5.874;2024-03-08T12:06:09;26.60;;;24.90;;
11531;SDS011;5822;51.000;5.874;2024-03-08T12:08:35;25.95;;;24.35;;
11531;SDS011;5822;51.000;5.874;2024-03-08T12:11:03;26.63;;;25.10;;
11531;SDS011;5822;51.000;5.874;2024-03-08T12:13:30;27.00;;;25.40;;
11531;SDS011;5822;51.000;5.874;2024-03-08T12:15:57;28.00;;;26.27;;
11531;SDS011;5822;51.000;5.874;2024-03-08T12:18:24;27.35;;;25.65;;
11531;SDS011;5822;51.000;5.874;2024-03-08T12:20:51;28.88;;;27.17;;
11531;SDS011;5822;51.000;5.874;2024-03-08T12:23:28;28.38;;;26.70;;
11531;SDS011;5822;51.000;5.874;2024-03-08T12:25:54;28.00;;;26.33;;
11531;SDS011;5822;51.000;5.874;2024-03-08T12:28:20;26.47;;;24.97;;
11531;SDS011;5822;51.000;5.874;2024-03-08T12:30:47;26.60;;;25.00;;
11531;SDS011;5822;51.000;5.874;2024-03-08T12:33:22;28.08;;;26.48;;
11531;SDS011;5822;51.000;5.874;2024-03-08T12:35:53;27.40;;;25.70;;
11531;SDS011;5822;51.000;5.874;2024-03-08T12:38:20;26.40;;;24.80;;
11531;SDS011;5822;51.000;5.874;2024-03-08T12:40:55;28.75;;;27.05;;
11531;SDS011;5822;51.000;5.874;2024-03-08T12:43:25;28.85;;;27.15;;
11531;SDS011;5822;51.000;5.874;2024-03-08T12:45:50;28.80;;;27.10;;
11531;SDS011;5822;51.000;5.874;2024-03-08T12:48:17;29.52;;;27.80;;
11531;SDS011;5822;51.000;5.874;2024-03-08T12:50:45;30.27;;;28.48;;
11531;SDS011;5822;51.000;5.874;2024-03-08T12:53:13;30.08;;;28.27;;
11531;SDS011;5822;51.000;5.874;2024-03-08T12:55:39;28.27;;;26.58;;
11531;SDS011;5822;51.000;5.874;2024-03-08T12:58:05;28.20;;;26.50;;
11531;SDS011;5822;51.000;5.874;2024-03-08T13:00:35;28.87;;;27.07;;
11531;SDS011;5822;51.000;5.874;2024-03-08T13:03:02;28.20;;;26.50;;
11531;SDS011;5822;51.000;5.874;2024-03-08T13:05:28;27.50;;;25.90;;
11531;SDS011;5822;51.000;5.874;2024-03-08T13:07:55;27.60;;;26.00;;
11531;SDS011;5822;51.000;5.874;2024-03-08T13:10:22;27.75;;;26.05;;
11531;SDS011;5822;51.000;5.874;2024-03-08T13:12:47;26.58;;;25.00;;
11531;SDS011;5822;51.000;5.874;2024-03-08T13:15:13;26.63;;;25.02;;
11531;SDS011;5822;51.000;5.874;2024-03-08T13:17:48;27.77;;;26.17;;
11531;SDS011;5822;51.000;5.874;2024-03-08T13:20:14;27.70;;;26.10;;
11531;SDS011;5822;51.000;5.874;2024-03-08T13:22:47;26.85;;;25.30;;
11531;SDS011;5822;51.000;5.874;2024-03-08T13:25:13;28.50;;;26.90;;
11531;SDS011;5822;51.000;5.874;2024-03-08T13:27:42;28.58;;;26.88;;
11531;SDS011;5822;51.000;5.874;2024-03-08T13:30:08;27.23;;;25.63;;
11531;SDS011;5822;51.000;5.874;2024-03-08T13:32:41;28.35;;;26.67;;
11531;SDS011;5822;51.000;5.874;2024-03-08T13:35:10;28.77;;;27.08;;
11531;SDS011;5822;51.000;5.874;2024-03-08T13:37:39;28.23;;;26.52;;
11531;SDS011;5822;51.000;5.874;2024-03-08T13:40:05;28.17;;;26.48;;
11531;SDS011;5822;51.000;5.874;2024-03-08T13:42:36;29.25;;;27.50;;
11531;SDS011;5822;51.000;5.874;2024-03-08T13:45:10;30.20;;;28.50;;
11531;SDS011;5822;51.000;5.874;2024-03-08T13:47:37;29.42;;;27.73;;
11531;SDS011;5822;51.000;5.874;2024-03-08T13:50:04;28.33;;;26.73;;
11531;SDS011;5822;51.000;5.874;2024-03-08T13:52:32;26.75;;;25.15;;
11531;SDS011;5822;51.000;5.874;2024-03-08T13:54:59;26.80;;;25.30;;
11531;SDS011;5822;51.000;5.874;2024-03-08T13:57:25;26.52;;;25.00;;
11531;SDS011;5822;51.000;5.874;2024-03-08T13:59:52;27.40;;;25.73;;
11531;SDS011;5822;51.000;5.874;2024-03-08T14:02:18;25.77;;;24.27;;
11531;SDS011;5822;51.000;5.874;2024-03-08T14:04:44;26.60;;;25.00;;
11531;SDS011;5822;51.000;5.874;2024-03-08T14:07:10;24.90;;;23.42;;
11531;SDS011;5822;51.000;5.874;2024-03-08T14:09:36;24.73;;;23.23;;
11531;SDS011;5822;51.000;5.874;2024-03-08T14:12:04;25.50;;;24.00;;
11531;SDS011;5822;51.000;5.874;2024-03-08T14:14:33;26.63;;;25.02;;
11531;SDS011;5822;51.000;5.874;2024-03-08T14:17:02;24.40;;;23.00;;
11531;SDS011;5822;51.000;5.874;2024-03-08T14:19:29;23.50;;;22.10;;
11531;SDS011;5822;51.000;5.874;2024-03-08T14:21:59;24.73;;;23.23;;
11531;SDS011;5822;51.000;5.874;2024-03-08T14:24:29;24.58;;;23.08;;
11531;SDS011;5822;51.000;5.874;2024-03-08T14:26:56;23.90;;;22.40;;
11531;SDS011;5822;51.000;5.874;2024-03-08T14:29:24;23.98;;;22.58;;
11531;SDS011;5822;51.000;5.874;2024-03-08T14:31:54;24.83;;;23.33;;
11531;SDS011;5822;51.000;5.874;2024-03-08T14:34:23;23.83;;;22.43;;
11531;SDS011;5822;51.000;5.874;2024-03-08T14:36:54;25.10;;;23.58;;
11531;SDS011;5822;51.000;5.874;2024-03-08T14:39:20;24.60;;;23.20;;
11531;SDS011;5822;51.000;5.874;2024-03-08T14:41:47;22.77;;;21.48;;
11531;SDS011;5822;51.000;5.874;2024-03-08T14:44:13;23.63;;;22.23;;
11531;SDS011;5822;51.000;5.874;2024-03-08T14:46:39;24.50;;;23.00;;
11531;SDS011;5822;51.000;5.874;2024-03-08T14:49:07;23.60;;;22.20;;
11531;SDS011;5822;51.000;5.874;2024-03-08T14:51:33;23.95;;;22.55;;
11531;SDS011;5822;51.000;5.874;2024-03-08T14:54:00;22.65;;;21.35;;